15:04
Airports
History
Links
Donate
Help keep this website running!
PayPal
Bitcoin
This page is community maintained. The information is intended for PC simulator navigation or reference.
Always use approved charts for navigation.
EDOP
Schwerin Parchim
Schwerin Parchim (EDOP)
Parchim, Mecklenburg-Vorpommern, Germany (19370)
(C)
Lat/Lng:53° 25' 37.19" N / 11° 47' 0.38" E
53.426997 / 11.783438
Elevation:166'ft / 51mMSL
ID / ICAO:EDOP
Runways:1
Longest:06-24
Concrete 2,993m / 9,821ft
Controlled:Yes
METAR14:50 GMT 2018-01-16
Altimeter: 29.15
Visibility: 6.2 statute miles
Wind: 7 knots (from 230°)
Temp: 4°c / 39°f
Humidity: 86.8%

METAR: EDOP 161450Z 23007KT 9999 BKN013 04/02 Q0987

(Powered by phpweather)
Airport Radio Frequencies
Tower: 132.65, 128.9, 128.9
Approach: 126.17
Nearby VORs <50NM
Nearby NDBs
Runway 06 / 24
Dimensions:2993.4 x 54.9m 9821' x 180'ft
Surface:Concrete
Edge Lights:High intensity
Runway 06 [A]Runway 24 [B]
Heading:064°TH 244°TH
Lat:
Lng:
53° 25' 16.71"N
11° 45' 46.73"E
53° 25' 57.67"N
11° 48' 14.02"E
ALS:MALSMALS
User Notes and Comments
53° 25' 37.19" N / 11° 47' 0.38" E
Distance To
Airport ID:
Nearby Airports
(C) Neustadt-Glewe 8.4 NM
EDAN SW 236°
(C) Pinnow 15.9 NM
EDBP NW 325°
4 Pritzwalk Sommersberg 24.0 NM
EDBU SE 136°
(C) Wismar-Mueggenburg 35.5 NM
EDCW NNW 340°
(U) Luechow Rehbeck 38.7 NM
EDHC SW 223°
(C) Laage 39.5 NM
ETNL ( WX ) NNE 30°
(U) RECHLIN LARZ 40.8 NM
EDAX E 101°
VFR Chart
Flight Planning at SkyVector.com